Aeroporto :
LOGIN :

Iscrizione | Disclaimer

   EN    FR    IT 

 










Sommario :    VFR   VFR Marginale   IFR   IFR Intensivo   IFR Molto Intensivo
Visibilità : 
Base nubi : 
>= 8 km
>= 3000ft
5 / 8 km
1000 / 3000 ft
1500m / 5 km
500 / 1000 ft
800 / 1500m
200 / 500 ft
< 800m
< 200 ft
Simboli :   Temporali  Nebbia  Neve Forte  Precipitazioni Forti  Vento > 20 kt
SIGMETs :   Varie  Temporali  Ghiacco  Turbolenza  Onda orograficha  Ceneri Vulcaniche






- Altitudine del aeroporto : 51 ft
- Codice IATA : GWT


EDXW - Westerland-Sylt Island

ULTIMO METAR :
  • 231720Z 30023G36KT 5000 -RA FEW012 BKN016 03/// Q1004

METARs OBSOLETI :
  • 231650Z 28022KT 9999 SCT023 SCT030 06/// Q1003
  • 231620Z 28021KT 9999 FEW015 SCT047 03/// Q1002
  • 231550Z 28017KT 9999 FEW013 SCT049 05/// Q1001
  • 231520Z 29017KT 9999 SCT014 SCT025 05/// Q1001

TAF TAF EDXW
Valido dal 23 a 18 ore il 23 a 21 ore UTC


231700Z 2318/2321 28020KT 9999 SCT020
TEMPO 2318/2321 29025G35KT 4000 SHRA BKN010CB



MetMap, La meteo Aeronautica in un colpo d'occhio ! - Copyright ORBIFLY Dicembre 2007 - Disclaimer

ORBIFLY MET'MAP TEAM :

Programmazione e sviluppo : Alexandra Zaïnal
Concezione : Baudouin d'Aumeries
Aiuto per la programmazione : Marc-Olivier Méhu
Supporto tecnico e logistico : Manuel Goepfert
Aiuto per la traduzione : Arnaldo La Scala

Contatto : metmap@orbifly.com




FONTI E CREDITI :

   NOAA